sensor_id;sensor_type;location;lat;lon;timestamp;temperature;humidity
25248;DHT22;13191;47.472;11.214;2022-12-16T00:01:18;2.80;99.90
25248;DHT22;13191;47.472;11.214;2022-12-16T00:03:52;2.80;99.90
25248;DHT22;13191;47.472;11.214;2022-12-16T00:06:19;2.80;99.90
25248;DHT22;13191;47.472;11.214;2022-12-16T00:08:45;2.70;99.90
25248;DHT22;13191;47.472;11.214;2022-12-16T00:11:11;2.70;99.90
25248;DHT22;13191;47.472;11.214;2022-12-16T00:13:38;2.70;99.90
25248;DHT22;13191;47.472;11.214;2022-12-16T00:16:23;2.70;99.90
25248;DHT22;13191;47.472;11.214;2022-12-16T00:18:48;2.70;99.90
25248;DHT22;13191;47.472;11.214;2022-12-16T00:21:15;2.80;99.90
25248;DHT22;13191;47.472;11.214;2022-12-16T00:23:43;2.80;99.90
25248;DHT22;13191;47.472;11.214;2022-12-16T00:26:09;2.90;99.90
25248;DHT22;13191;47.472;11.214;2022-12-16T00:28:36;2.90;99.90
25248;DHT22;13191;47.472;11.214;2022-12-16T00:31:03;2.90;99.90
25248;DHT22;13191;47.472;11.214;2022-12-16T00:33:28;2.90;99.90
25248;DHT22;13191;47.472;11.214;2022-12-16T00:35:54;2.90;99.90
25248;DHT22;13191;47.472;11.214;2022-12-16T00:38:21;2.90;99.90
25248;DHT22;13191;47.472;11.214;2022-12-16T00:40:47;2.90;99.90
25248;DHT22;13191;47.472;11.214;2022-12-16T00:43:12;2.90;99.90
25248;DHT22;13191;47.472;11.214;2022-12-16T00:45:38;3.00;99.90
25248;DHT22;13191;47.472;11.214;2022-12-16T00:48:04;3.00;99.90
25248;DHT22;13191;47.472;11.214;2022-12-16T00:50:30;3.00;99.90
25248;DHT22;13191;47.472;11.214;2022-12-16T00:52:56;3.00;99.90
25248;DHT22;13191;47.472;11.214;2022-12-16T00:55:22;3.00;99.90
25248;DHT22;13191;47.472;11.214;2022-12-16T00:57:48;2.90;99.90
25248;DHT22;13191;47.472;11.214;2022-12-16T01:00:15;2.90;99.90
25248;DHT22;13191;47.472;11.214;2022-12-16T01:02:46;2.80;99.90
25248;DHT22;13191;47.472;11.214;2022-12-16T01:05:13;2.80;99.90
25248;DHT22;13191;47.472;11.214;2022-12-16T01:07:39;2.80;99.90
25248;DHT22;13191;47.472;11.214;2022-12-16T01:10:06;2.80;99.90
25248;DHT22;13191;47.472;11.214;2022-12-16T01:12:33;2.80;99.90
25248;DHT22;13191;47.472;11.214;2022-12-16T01:14:59;2.80;99.90
25248;DHT22;13191;47.472;11.214;2022-12-16T01:17:25;2.80;99.90
25248;DHT22;13191;47.472;11.214;2022-12-16T01:19:51;2.80;99.90
25248;DHT22;13191;47.472;11.214;2022-12-16T01:22:18;2.80;99.90
25248;DHT22;13191;47.472;11.214;2022-12-16T01:24:44;2.80;99.90
25248;DHT22;13191;47.472;11.214;2022-12-16T01:27:10;2.70;99.90
25248;DHT22;13191;47.472;11.214;2022-12-16T01:29:36;2.60;99.90
25248;DHT22;13191;47.472;11.214;2022-12-16T01:32:02;2.60;99.90
25248;DHT22;13191;47.472;11.214;2022-12-16T01:34:27;2.50;99.90
25248;DHT22;13191;47.472;11.214;2022-12-16T01:36:53;2.60;99.90
25248;DHT22;13191;47.472;11.214;2022-12-16T01:39:19;2.50;99.90
25248;DHT22;13191;47.472;11.214;2022-12-16T01:41:44;2.50;99.90
25248;DHT22;13191;47.472;11.214;2022-12-16T01:44:17;2.50;99.90
25248;DHT22;13191;47.472;11.214;2022-12-16T01:46:56;2.60;99.90
25248;DHT22;13191;47.472;11.214;2022-12-16T01:50:08;2.60;99.90
25248;DHT22;13191;47.472;11.214;2022-12-16T01:52:22;2.60;99.90
25248;DHT22;13191;47.472;11.214;2022-12-16T01:54:55;2.60;99.90
25248;DHT22;13191;47.472;11.214;2022-12-16T01:57:31;2.70;99.90
25248;DHT22;13191;47.472;11.214;2022-12-16T01:59:58;2.70;99.90
25248;DHT22;13191;47.472;11.214;2022-12-16T02:02:25;2.70;99.90
25248;DHT22;13191;47.472;11.214;2022-12-16T02:04:51;2.80;99.90
25248;DHT22;13191;47.472;11.214;2022-12-16T02:07:35;2.80;99.90
25248;DHT22;13191;47.472;11.214;2022-12-16T02:10:02;2.90;99.90
25248;DHT22;13191;47.472;11.214;2022-12-16T02:12:49;2.90;99.90
25248;DHT22;13191;47.472;11.214;2022-12-16T02:15:40;2.90;99.90
25248;DHT22;13191;47.472;11.214;2022-12-16T02:18:13;3.00;99.90
25248;DHT22;13191;47.472;11.214;2022-12-16T02:23:42;3.00;99.90
25248;DHT22;13191;47.472;11.214;2022-12-16T02:29:21;3.10;99.90
25248;DHT22;13191;47.472;11.214;2022-12-16T02:34:36;3.10;99.90
25248;DHT22;13191;47.472;11.214;2022-12-16T02:39:54;3.10;99.90
25248;DHT22;13191;47.472;11.214;2022-12-16T02:42:30;3.10;99.90
25248;DHT22;13191;47.472;11.214;2022-12-16T02:45:21;3.10;99.90
25248;DHT22;13191;47.472;11.214;2022-12-16T02:47:49;3.10;99.90
25248;DHT22;13191;47.472;11.214;2022-12-16T02:52:55;3.00;99.90
25248;DHT22;13191;47.472;11.214;2022-12-16T02:58:18;3.10;99.90
25248;DHT22;13191;47.472;11.214;2022-12-16T03:03:42;3.10;99.90
25248;DHT22;13191;47.472;11.214;2022-12-16T03:06:11;3.10;99.90
25248;DHT22;13191;47.472;11.214;2022-12-16T03:08:41;3.10;99.90
25248;DHT22;13191;47.472;11.214;2022-12-16T03:11:09;3.00;99.90
25248;DHT22;13191;47.472;11.214;2022-12-16T03:13:42;2.90;99.90
25248;DHT22;13191;47.472;11.214;2022-12-16T03:16:12;2.70;99.90
25248;DHT22;13191;47.472;11.214;2022-12-16T03:18:41;2.50;99.90
25248;DHT22;13191;47.472;11.214;2022-12-16T03:21:08;2.30;99.90
25248;DHT22;13191;47.472;11.214;2022-12-16T03:23:51;2.00;99.90
25248;DHT22;13191;47.472;11.214;2022-12-16T03:26:55;1.80;99.90
25248;DHT22;13191;47.472;11.214;2022-12-16T03:29:38;1.70;99.90
25248;DHT22;13191;47.472;11.214;2022-12-16T03:32:16;1.60;99.90
25248;DHT22;13191;47.472;11.214;2022-12-16T03:34:59;1.50;99.90
25248;DHT22;13191;47.472;11.214;2022-12-16T03:37:28;1.50;99.90
25248;DHT22;13191;47.472;11.214;2022-12-16T03:39:59;1.40;99.90
25248;DHT22;13191;47.472;11.214;2022-12-16T03:42:25;1.20;99.90
25248;DHT22;13191;47.472;11.214;2022-12-16T03:44:52;1.10;99.90
25248;DHT22;13191;47.472;11.214;2022-12-16T03:47:18;1.00;99.90
25248;DHT22;13191;47.472;11.214;2022-12-16T03:49:43;0.90;99.90
25248;DHT22;13191;47.472;11.214;2022-12-16T03:52:10;0.80;99.90
25248;DHT22;13191;47.472;11.214;2022-12-16T04:04:20;0.70;99.90
25248;DHT22;13191;47.472;11.214;2022-12-16T04:06:46;0.70;99.90
25248;DHT22;13191;47.472;11.214;2022-12-16T04:09:31;0.70;99.90
25248;DHT22;13191;47.472;11.214;2022-12-16T04:11:57;0.70;99.90
25248;DHT22;13191;47.472;11.214;2022-12-16T04:14:41;0.70;99.90
25248;DHT22;13191;47.472;11.214;2022-12-16T04:17:25;0.70;99.90
25248;DHT22;13191;47.472;11.214;2022-12-16T04:20:16;0.80;99.90
25248;DHT22;13191;47.472;11.214;2022-12-16T04:23:01;0.80;99.90
25248;DHT22;13191;47.472;11.214;2022-12-16T04:25:46;0.80;99.90
25248;DHT22;13191;47.472;11.214;2022-12-16T04:28:11;0.80;99.90
25248;DHT22;13191;47.472;11.214;2022-12-16T04:30:37;0.80;99.90
25248;DHT22;13191;47.472;11.214;2022-12-16T04:33:09;0.70;99.90
25248;DHT22;13191;47.472;11.214;2022-12-16T04:35:55;0.70;99.90
25248;DHT22;13191;47.472;11.214;2022-12-16T04:38:39;0.70;99.90
25248;DHT22;13191;47.472;11.214;2022-12-16T04:41:23;0.60;99.90
25248;DHT22;13191;47.472;11.214;2022-12-16T04:44:08;0.70;99.90
25248;DHT22;13191;47.472;11.214;2022-12-16T04:46:52;0.60;99.90
25248;DHT22;13191;47.472;11.214;2022-12-16T04:49:36;0.50;99.90
25248;DHT22;13191;47.472;11.214;2022-12-16T04:52:20;0.50;99.90
25248;DHT22;13191;47.472;11.214;2022-12-16T04:55:05;0.50;99.90
25248;DHT22;13191;47.472;11.214;2022-12-16T04:57:51;0.60;99.90
25248;DHT22;13191;47.472;11.214;2022-12-16T05:00:36;0.60;99.90
25248;DHT22;13191;47.472;11.214;2022-12-16T05:03:20;0.60;99.90
25248;DHT22;13191;47.472;11.214;2022-12-16T05:06:05;0.60;99.90
25248;DHT22;13191;47.472;11.214;2022-12-16T05:08:49;0.50;99.90
25248;DHT22;13191;47.472;11.214;2022-12-16T05:11:32;0.40;99.90
25248;DHT22;13191;47.472;11.214;2022-12-16T05:14:17;0.30;99.90
25248;DHT22;13191;47.472;11.214;2022-12-16T05:17:01;0.30;99.90
25248;DHT22;13191;47.472;11.214;2022-12-16T05:19:45;0.30;99.90
25248;DHT22;13191;47.472;11.214;2022-12-16T05:22:29;0.30;99.90
25248;DHT22;13191;47.472;11.214;2022-12-16T05:25:13;0.20;99.90
25248;DHT22;13191;47.472;11.214;2022-12-16T05:27:59;0.20;99.90
25248;DHT22;13191;47.472;11.214;2022-12-16T05:30:43;0.20;99.90
25248;DHT22;13191;47.472;11.214;2022-12-16T05:33:27;0.30;99.90
25248;DHT22;13191;47.472;11.214;2022-12-16T05:36:11;0.40;99.90
25248;DHT22;13191;47.472;11.214;2022-12-16T05:38:55;0.50;99.90
25248;DHT22;13191;47.472;11.214;2022-12-16T05:41:39;0.60;99.90
25248;DHT22;13191;47.472;11.214;2022-12-16T05:44:23;0.60;99.90
25248;DHT22;13191;47.472;11.214;2022-12-16T05:47:07;0.60;99.90
25248;DHT22;13191;47.472;11.214;2022-12-16T05:49:52;0.60;99.90
25248;DHT22;13191;47.472;11.214;2022-12-16T05:52:36;0.60;99.90
25248;DHT22;13191;47.472;11.214;2022-12-16T05:55:21;0.70;99.90
25248;DHT22;13191;47.472;11.214;2022-12-16T05:58:05;0.70;99.90
25248;DHT22;13191;47.472;11.214;2022-12-16T06:00:50;0.70;99.90
25248;DHT22;13191;47.472;11.214;2022-12-16T06:03:34;0.60;99.90
25248;DHT22;13191;47.472;11.214;2022-12-16T06:06:19;0.60;99.90
25248;DHT22;13191;47.472;11.214;2022-12-16T06:09:03;0.50;99.90
25248;DHT22;13191;47.472;11.214;2022-12-16T06:11:47;0.50;99.90
25248;DHT22;13191;47.472;11.214;2022-12-16T06:14:32;0.40;99.90
25248;DHT22;13191;47.472;11.214;2022-12-16T06:17:16;0.40;99.90
25248;DHT22;13191;47.472;11.214;2022-12-16T06:20:00;0.40;99.90
25248;DHT22;13191;47.472;11.214;2022-12-16T06:22:50;0.50;99.90
25248;DHT22;13191;47.472;11.214;2022-12-16T06:25:35;0.60;99.90
25248;DHT22;13191;47.472;11.214;2022-12-16T06:28:19;0.70;99.90
25248;DHT22;13191;47.472;11.214;2022-12-16T06:31:03;0.70;99.90
25248;DHT22;13191;47.472;11.214;2022-12-16T06:33:47;0.60;99.90
25248;DHT22;13191;47.472;11.214;2022-12-16T06:36:31;0.60;99.90
25248;DHT22;13191;47.472;11.214;2022-12-16T06:39:15;0.60;99.90
25248;DHT22;13191;47.472;11.214;2022-12-16T06:41:59;0.50;99.90
25248;DHT22;13191;47.472;11.214;2022-12-16T06:44:44;0.40;99.90
25248;DHT22;13191;47.472;11.214;2022-12-16T06:47:28;0.30;99.90
25248;DHT22;13191;47.472;11.214;2022-12-16T06:50:12;0.30;99.90
25248;DHT22;13191;47.472;11.214;2022-12-16T06:52:56;0.30;99.90
25248;DHT22;13191;47.472;11.214;2022-12-16T06:55:40;0.30;99.90
25248;DHT22;13191;47.472;11.214;2022-12-16T06:58:24;0.30;99.90
25248;DHT22;13191;47.472;11.214;2022-12-16T07:01:08;0.30;99.90
25248;DHT22;13191;47.472;11.214;2022-12-16T07:03:53;0.30;99.90
25248;DHT22;13191;47.472;11.214;2022-12-16T07:06:37;0.30;99.90
25248;DHT22;13191;47.472;11.214;2022-12-16T07:09:21;0.30;99.90
25248;DHT22;13191;47.472;11.214;2022-12-16T07:12:05;0.30;99.90
25248;DHT22;13191;47.472;11.214;2022-12-16T07:14:49;0.30;99.90
25248;DHT22;13191;47.472;11.214;2022-12-16T07:17:33;0.40;99.90
25248;DHT22;13191;47.472;11.214;2022-12-16T07:20:18;0.40;99.90
25248;DHT22;13191;47.472;11.214;2022-12-16T07:23:02;0.50;99.90
25248;DHT22;13191;47.472;11.214;2022-12-16T07:25:46;0.50;99.90
25248;DHT22;13191;47.472;11.214;2022-12-16T07:28:30;0.50;99.90
25248;DHT22;13191;47.472;11.214;2022-12-16T07:31:14;0.50;99.90
25248;DHT22;13191;47.472;11.214;2022-12-16T07:33:59;0.40;99.90
25248;DHT22;13191;47.472;11.214;2022-12-16T07:36:43;0.30;99.90
25248;DHT22;13191;47.472;11.214;2022-12-16T07:39:27;0.20;99.90
25248;DHT22;13191;47.472;11.214;2022-12-16T07:42:11;0.10;99.90
25248;DHT22;13191;47.472;11.214;2022-12-16T07:44:55;0.10;99.90
25248;DHT22;13191;47.472;11.214;2022-12-16T07:47:46;0.10;99.90
25248;DHT22;13191;47.472;11.214;2022-12-16T07:50:30;0.10;99.90
25248;DHT22;13191;47.472;11.214;2022-12-16T07:53:14;0.10;99.90
25248;DHT22;13191;47.472;11.214;2022-12-16T07:55:58;0.10;99.90
25248;DHT22;13191;47.472;11.214;2022-12-16T07:58:42;0.10;99.90
25248;DHT22;13191;47.472;11.214;2022-12-16T08:01:27;0.10;99.90
25248;DHT22;13191;47.472;11.214;2022-12-16T08:04:11;0.00;99.90
25248;DHT22;13191;47.472;11.214;2022-12-16T08:06:55;0.00;99.90
25248;DHT22;13191;47.472;11.214;2022-12-16T08:09:39;0.00;99.90
25248;DHT22;13191;47.472;11.214;2022-12-16T08:12:23;0.00;99.90
25248;DHT22;13191;47.472;11.214;2022-12-16T08:15:08;0.00;99.90
25248;DHT22;13191;47.472;11.214;2022-12-16T08:17:52;0.00;99.90
25248;DHT22;13191;47.472;11.214;2022-12-16T08:20:37;0.00;99.90
25248;DHT22;13191;47.472;11.214;2022-12-16T08:23:23;0.10;99.90
25248;DHT22;13191;47.472;11.214;2022-12-16T08:26:07;0.10;99.90
25248;DHT22;13191;47.472;11.214;2022-12-16T08:28:51;0.10;99.90
25248;DHT22;13191;47.472;11.214;2022-12-16T08:31:36;0.10;99.90
25248;DHT22;13191;47.472;11.214;2022-12-16T08:34:20;0.10;99.90
25248;DHT22;13191;47.472;11.214;2022-12-16T08:37:05;0.20;99.90
25248;DHT22;13191;47.472;11.214;2022-12-16T08:39:49;0.30;99.90
25248;DHT22;13191;47.472;11.214;2022-12-16T08:42:33;0.40;99.90
25248;DHT22;13191;47.472;11.214;2022-12-16T08:45:18;0.50;99.90
25248;DHT22;13191;47.472;11.214;2022-12-16T08:48:02;0.50;99.90
25248;DHT22;13191;47.472;11.214;2022-12-16T08:51:02;0.50;99.90
25248;DHT22;13191;47.472;11.214;2022-12-16T08:53:46;0.60;99.90
25248;DHT22;13191;47.472;11.214;2022-12-16T08:56:31;0.70;99.90
25248;DHT22;13191;47.472;11.214;2022-12-16T08:59:19;0.70;99.90
25248;DHT22;13191;47.472;11.214;2022-12-16T09:02:04;0.80;99.90
25248;DHT22;13191;47.472;11.214;2022-12-16T09:04:48;0.70;99.90
25248;DHT22;13191;47.472;11.214;2022-12-16T09:07:32;0.60;99.90
25248;DHT22;13191;47.472;11.214;2022-12-16T09:10:17;0.60;99.90
25248;DHT22;13191;47.472;11.214;2022-12-16T09:13:09;0.60;99.90
25248;DHT22;13191;47.472;11.214;2022-12-16T09:15:54;0.60;99.90
25248;DHT22;13191;47.472;11.214;2022-12-16T09:18:43;0.50;99.90
25248;DHT22;13191;47.472;11.214;2022-12-16T09:21:32;0.60;99.90
25248;DHT22;13191;47.472;11.214;2022-12-16T09:24:16;0.70;99.90
25248;DHT22;13191;47.472;11.214;2022-12-16T09:27:00;0.70;99.90
25248;DHT22;13191;47.472;11.214;2022-12-16T09:29:44;0.60;99.90
25248;DHT22;13191;47.472;11.214;2022-12-16T09:32:29;0.70;99.90
25248;DHT22;13191;47.472;11.214;2022-12-16T09:35:14;0.70;99.90
25248;DHT22;13191;47.472;11.214;2022-12-16T09:37:58;0.70;99.90
25248;DHT22;13191;47.472;11.214;2022-12-16T09:40:42;0.70;99.90
25248;DHT22;13191;47.472;11.214;2022-12-16T09:43:41;0.60;99.90
25248;DHT22;13191;47.472;11.214;2022-12-16T09:49:45;0.50;99.90
25248;DHT22;13191;47.472;11.214;2022-12-16T09:52:35;0.50;99.90
25248;DHT22;13191;47.472;11.214;2022-12-16T09:55:24;0.50;99.90
25248;DHT22;13191;47.472;11.214;2022-12-16T09:58:10;0.50;99.90
25248;DHT22;13191;47.472;11.214;2022-12-16T10:00:56;0.50;99.90
25248;DHT22;13191;47.472;11.214;2022-12-16T10:03:41;0.50;99.90
25248;DHT22;13191;47.472;11.214;2022-12-16T10:06:33;0.60;99.90
25248;DHT22;13191;47.472;11.214;2022-12-16T10:15:49;0.70;99.90
25248;DHT22;13191;47.472;11.214;2022-12-16T10:18:45;0.70;99.90
25248;DHT22;13191;47.472;11.214;2022-12-16T10:21:50;0.70;99.90
25248;DHT22;13191;47.472;11.214;2022-12-16T10:24:54;0.70;99.90
25248;DHT22;13191;47.472;11.214;2022-12-16T10:31:22;0.70;99.90
25248;DHT22;13191;47.472;11.214;2022-12-16T10:34:12;0.70;99.90
25248;DHT22;13191;47.472;11.214;2022-12-16T10:36:57;0.70;99.90
25248;DHT22;13191;47.472;11.214;2022-12-16T10:39:55;0.70;99.90
25248;DHT22;13191;47.472;11.214;2022-12-16T10:43:04;0.80;99.90
25248;DHT22;13191;47.472;11.214;2022-12-16T10:45:52;0.70;99.90
25248;DHT22;13191;47.472;11.214;2022-12-16T10:48:57;0.70;99.90
25248;DHT22;13191;47.472;11.214;2022-12-16T10:51:41;0.60;99.90
25248;DHT22;13191;47.472;11.214;2022-12-16T10:54:34;0.60;99.90
25248;DHT22;13191;47.472;11.214;2022-12-16T11:00:44;0.60;99.90
25248;DHT22;13191;47.472;11.214;2022-12-16T11:03:30;0.70;99.90
25248;DHT22;13191;47.472;11.214;2022-12-16T11:06:38;0.70;99.90
25248;DHT22;13191;47.472;11.214;2022-12-16T11:09:28;0.70;99.90
25248;DHT22;13191;47.472;11.214;2022-12-16T11:14:57;0.70;99.90
25248;DHT22;13191;47.472;11.214;2022-12-16T11:18:00;0.70;99.90
25248;DHT22;13191;47.472;11.214;2022-12-16T11:21:10;0.80;99.90
25248;DHT22;13191;47.472;11.214;2022-12-16T11:24:16;0.90;99.90
25248;DHT22;13191;47.472;11.214;2022-12-16T11:27:06;0.90;99.90
25248;DHT22;13191;47.472;11.214;2022-12-16T11:29:58;0.90;99.90
25248;DHT22;13191;47.472;11.214;2022-12-16T11:32:49;1.00;99.90
25248;DHT22;13191;47.472;11.214;2022-12-16T11:35:40;1.10;99.90
25248;DHT22;13191;47.472;11.214;2022-12-16T11:38:42;1.20;99.90
25248;DHT22;13191;47.472;11.214;2022-12-16T11:41:36;1.20;99.90
25248;DHT22;13191;47.472;11.214;2022-12-16T11:44:35;1.20;99.90
25248;DHT22;13191;47.472;11.214;2022-12-16T11:47:42;1.30;99.90
25248;DHT22;13191;47.472;11.214;2022-12-16T11:50:29;1.40;99.90
25248;DHT22;13191;47.472;11.214;2022-12-16T11:53:36;1.40;99.90
25248;DHT22;13191;47.472;11.214;2022-12-16T11:56:26;1.50;99.90
25248;DHT22;13191;47.472;11.214;2022-12-16T12:02:21;1.40;99.90
25248;DHT22;13191;47.472;11.214;2022-12-16T12:05:11;1.50;99.90
25248;DHT22;13191;47.472;11.214;2022-12-16T12:08:13;1.50;99.90
25248;DHT22;13191;47.472;11.214;2022-12-16T12:17:06;1.60;99.90
25248;DHT22;13191;47.472;11.214;2022-12-16T12:20:03;1.60;99.90
25248;DHT22;13191;47.472;11.214;2022-12-16T12:22:55;1.50;99.90
25248;DHT22;13191;47.472;11.214;2022-12-16T12:28:50;1.60;99.90
25248;DHT22;13191;47.472;11.214;2022-12-16T12:38:33;1.60;99.90
25248;DHT22;13191;47.472;11.214;2022-12-16T12:41:38;1.60;99.90
25248;DHT22;13191;47.472;11.214;2022-12-16T12:44:59;1.60;99.90
25248;DHT22;13191;47.472;11.214;2022-12-16T12:48:07;1.70;99.90
25248;DHT22;13191;47.472;11.214;2022-12-16T12:51:03;1.60;99.90
25248;DHT22;13191;47.472;11.214;2022-12-16T12:53:58;1.70;99.90
25248;DHT22;13191;47.472;11.214;2022-12-16T12:56:51;1.60;99.90
25248;DHT22;13191;47.472;11.214;2022-12-16T12:59:53;1.60;99.90
25248;DHT22;13191;47.472;11.214;2022-12-16T13:05:49;1.60;99.90
25248;DHT22;13191;47.472;11.214;2022-12-16T13:11:34;1.50;99.90
25248;DHT22;13191;47.472;11.214;2022-12-16T13:17:19;1.50;99.90
25248;DHT22;13191;47.472;11.214;2022-12-16T13:26:15;1.50;99.90
25248;DHT22;13191;47.472;11.214;2022-12-16T13:35:03;1.50;99.90
25248;DHT22;13191;47.472;11.214;2022-12-16T13:41:02;1.50;99.90
25248;DHT22;13191;47.472;11.214;2022-12-16T13:46:44;1.50;99.90
25248;DHT22;13191;47.472;11.214;2022-12-16T13:52:54;1.50;99.90
25248;DHT22;13191;47.472;11.214;2022-12-16T13:55:54;1.50;99.90
25248;DHT22;13191;47.472;11.214;2022-12-16T13:58:49;1.50;99.90
25248;DHT22;13191;47.472;11.214;2022-12-16T14:01:36;1.60;99.90
25248;DHT22;13191;47.472;11.214;2022-12-16T14:04:43;1.50;99.90
25248;DHT22;13191;47.472;11.214;2022-12-16T14:07:30;1.50;99.90
25248;DHT22;13191;47.472;11.214;2022-12-16T14:10:35;1.50;99.90
25248;DHT22;13191;47.472;11.214;2022-12-16T14:16:29;1.50;99.90
25248;DHT22;13191;47.472;11.214;2022-12-16T14:19:45;1.50;99.90
25248;DHT22;13191;47.472;11.214;2022-12-16T14:22:51;1.60;99.90
25248;DHT22;13191;47.472;11.214;2022-12-16T14:25:41;1.60;99.90
25248;DHT22;13191;47.472;11.214;2022-12-16T14:28:38;1.60;99.90
25248;DHT22;13191;47.472;11.214;2022-12-16T14:31:25;1.60;99.90
25248;DHT22;13191;47.472;11.214;2022-12-16T14:34:38;1.60;99.90
25248;DHT22;13191;47.472;11.214;2022-12-16T14:37:35;1.60;99.90
25248;DHT22;13191;47.472;11.214;2022-12-16T14:40:38;1.60;99.90
25248;DHT22;13191;47.472;11.214;2022-12-16T14:43:24;1.60;99.90
25248;DHT22;13191;47.472;11.214;2022-12-16T14:46:28;1.60;99.90
25248;DHT22;13191;47.472;11.214;2022-12-16T14:52:16;1.60;99.90
25248;DHT22;13191;47.472;11.214;2022-12-16T14:55:19;1.50;99.90
25248;DHT22;13191;47.472;11.214;2022-12-16T14:58:13;1.50;99.90
25248;DHT22;13191;47.472;11.214;2022-12-16T15:01:11;1.50;99.90
25248;DHT22;13191;47.472;11.214;2022-12-16T15:03:56;1.50;99.90
25248;DHT22;13191;47.472;11.214;2022-12-16T15:06:43;1.50;99.90
25248;DHT22;13191;47.472;11.214;2022-12-16T15:09:49;1.50;99.90
25248;DHT22;13191;47.472;11.214;2022-12-16T15:12:37;1.40;99.90
25248;DHT22;13191;47.472;11.214;2022-12-16T15:15:26;1.40;99.90
25248;DHT22;13191;47.472;11.214;2022-12-16T15:18:33;1.30;99.90
25248;DHT22;13191;47.472;11.214;2022-12-16T15:21:19;1.30;99.90
25248;DHT22;13191;47.472;11.214;2022-12-16T15:24:08;1.30;99.90
25248;DHT22;13191;47.472;11.214;2022-12-16T15:27:13;1.20;99.90
25248;DHT22;13191;47.472;11.214;2022-12-16T15:29:57;1.10;99.90
25248;DHT22;13191;47.472;11.214;2022-12-16T15:32:43;1.10;99.90
25248;DHT22;13191;47.472;11.214;2022-12-16T15:35:36;1.10;99.90
25248;DHT22;13191;47.472;11.214;2022-12-16T15:38:27;1.10;99.90
25248;DHT22;13191;47.472;11.214;2022-12-16T15:41:33;1.20;99.90
25248;DHT22;13191;47.472;11.214;2022-12-16T15:44:24;1.20;99.90
25248;DHT22;13191;47.472;11.214;2022-12-16T15:47:25;1.10;99.90
25248;DHT22;13191;47.472;11.214;2022-12-16T15:50:13;1.10;99.90
25248;DHT22;13191;47.472;11.214;2022-12-16T15:56:32;1.10;99.90
25248;DHT22;13191;47.472;11.214;2022-12-16T16:05:01;1.10;99.90
25248;DHT22;13191;47.472;11.214;2022-12-16T16:07:45;1.10;99.90
25248;DHT22;13191;47.472;11.214;2022-12-16T16:10:49;1.00;99.90
25248;DHT22;13191;47.472;11.214;2022-12-16T16:13:33;1.00;99.90
25248;DHT22;13191;47.472;11.214;2022-12-16T16:16:18;1.00;99.90
25248;DHT22;13191;47.472;11.214;2022-12-16T16:19:02;1.00;99.90
25248;DHT22;13191;47.472;11.214;2022-12-16T16:21:47;1.00;99.90
25248;DHT22;13191;47.472;11.214;2022-12-16T16:24:32;1.00;99.90
25248;DHT22;13191;47.472;11.214;2022-12-16T16:27:17;1.00;99.90
25248;DHT22;13191;47.472;11.214;2022-12-16T16:30:02;0.90;99.90
25248;DHT22;13191;47.472;11.214;2022-12-16T16:32:47;0.80;99.90
25248;DHT22;13191;47.472;11.214;2022-12-16T16:35:32;0.80;99.90
25248;DHT22;13191;47.472;11.214;2022-12-16T16:38:16;0.80;99.90
25248;DHT22;13191;47.472;11.214;2022-12-16T16:41:00;0.80;99.90
25248;DHT22;13191;47.472;11.214;2022-12-16T16:43:45;0.80;99.90
25248;DHT22;13191;47.472;11.214;2022-12-16T16:49:30;0.70;99.90
25248;DHT22;13191;47.472;11.214;2022-12-16T16:52:20;0.80;99.90
25248;DHT22;13191;47.472;11.214;2022-12-16T16:55:05;0.70;99.90
25248;DHT22;13191;47.472;11.214;2022-12-16T16:57:50;0.60;99.90
25248;DHT22;13191;47.472;11.214;2022-12-16T17:00:34;0.60;99.90
25248;DHT22;13191;47.472;11.214;2022-12-16T17:03:18;0.60;99.90
25248;DHT22;13191;47.472;11.214;2022-12-16T17:06:03;0.60;99.90
25248;DHT22;13191;47.472;11.214;2022-12-16T17:08:47;0.60;99.90
25248;DHT22;13191;47.472;11.214;2022-12-16T17:11:32;0.60;99.90
25248;DHT22;13191;47.472;11.214;2022-12-16T17:14:18;0.60;99.90
25248;DHT22;13191;47.472;11.214;2022-12-16T17:17:04;0.50;99.90
25248;DHT22;13191;47.472;11.214;2022-12-16T17:19:48;0.50;99.90
25248;DHT22;13191;47.472;11.214;2022-12-16T17:22:33;0.50;99.90
25248;DHT22;13191;47.472;11.214;2022-12-16T17:25:17;0.40;99.90
25248;DHT22;13191;47.472;11.214;2022-12-16T17:28:02;0.40;99.90
25248;DHT22;13191;47.472;11.214;2022-12-16T17:30:46;0.40;99.90
25248;DHT22;13191;47.472;11.214;2022-12-16T17:33:30;0.30;99.90
25248;DHT22;13191;47.472;11.214;2022-12-16T17:36:16;0.30;99.90
25248;DHT22;13191;47.472;11.214;2022-12-16T17:39:02;0.20;99.90
25248;DHT22;13191;47.472;11.214;2022-12-16T17:41:46;0.20;99.90
25248;DHT22;13191;47.472;11.214;2022-12-16T17:44:31;0.20;99.90
25248;DHT22;13191;47.472;11.214;2022-12-16T17:47:15;0.20;99.90
25248;DHT22;13191;47.472;11.214;2022-12-16T17:50:01;0.10;99.90
25248;DHT22;13191;47.472;11.214;2022-12-16T17:52:45;0.00;99.90
25248;DHT22;13191;47.472;11.214;2022-12-16T17:55:30;-0.10;99.90
25248;DHT22;13191;47.472;11.214;2022-12-16T17:58:14;-0.30;99.90
25248;DHT22;13191;47.472;11.214;2022-12-16T18:01:04;-0.40;99.90
25248;DHT22;13191;47.472;11.214;2022-12-16T18:03:49;-0.50;99.90
25248;DHT22;13191;47.472;11.214;2022-12-16T18:06:33;-0.50;99.90
25248;DHT22;13191;47.472;11.214;2022-12-16T18:09:31;-0.40;99.90
25248;DHT22;13191;47.472;11.214;2022-12-16T18:12:16;-0.40;99.90
25248;DHT22;13191;47.472;11.214;2022-12-16T18:15:00;-0.40;99.90
25248;DHT22;13191;47.472;11.214;2022-12-16T18:17:47;-0.50;99.90
25248;DHT22;13191;47.472;11.214;2022-12-16T18:20:32;-0.50;99.90
25248;DHT22;13191;47.472;11.214;2022-12-16T18:23:16;-0.50;99.90
25248;DHT22;13191;47.472;11.214;2022-12-16T18:26:06;-0.40;99.90
25248;DHT22;13191;47.472;11.214;2022-12-16T18:29:10;-0.50;99.90
25248;DHT22;13191;47.472;11.214;2022-12-16T18:31:54;-0.80;99.90
25248;DHT22;13191;47.472;11.214;2022-12-16T18:34:38;-0.90;99.90
25248;DHT22;13191;47.472;11.214;2022-12-16T18:37:22;-1.00;99.90
25248;DHT22;13191;47.472;11.214;2022-12-16T18:40:07;-1.00;99.90
25248;DHT22;13191;47.472;11.214;2022-12-16T18:42:52;-1.00;99.90
25248;DHT22;13191;47.472;11.214;2022-12-16T18:45:36;-1.10;99.90
25248;DHT22;13191;47.472;11.214;2022-12-16T18:48:20;-1.20;99.90
25248;DHT22;13191;47.472;11.214;2022-12-16T18:51:04;-1.20;99.90
25248;DHT22;13191;47.472;11.214;2022-12-16T18:53:49;-1.20;99.90
25248;DHT22;13191;47.472;11.214;2022-12-16T18:56:33;-1.30;99.90
25248;DHT22;13191;47.472;11.214;2022-12-16T18:59:17;-1.30;99.90
25248;DHT22;13191;47.472;11.214;2022-12-16T19:02:02;-1.30;99.90
25248;DHT22;13191;47.472;11.214;2022-12-16T19:04:46;-1.30;99.90
25248;DHT22;13191;47.472;11.214;2022-12-16T19:07:30;-1.20;99.90
25248;DHT22;13191;47.472;11.214;2022-12-16T19:10:14;-1.20;99.90
25248;DHT22;13191;47.472;11.214;2022-12-16T19:12:59;-1.20;99.90